Terminal Aerodrome Forecast
Issued by NWS Pittsburgh, PA

Current Version | Previous Version | Text Only | Print | Product List | Glossary Off
Versions: 1 2 3 4 5 6 7 8 9 10 11 12 13 14 15 16 17 18 19 20 21 22 23 24 25 26 27 28 29 30 31 32 33 34

485
FTUS41 KPBZ 121950 AAA
TAFPIT
TAF AMD
KPIT 121950Z 1220/1324 23012KT P6SM -SN BKN035
     FM130100 28015G28KT 4SM -SHSN BKN015
      TEMPO 1302/1305 1SM -SHSN BKN007
     FM130700 30012G25KT P6SM -SHSN BKN025=

USA.gov is the U.S. government's official web portal to all federal, state and local government web resources and services.